Time;durP1;ratioP1;P1;durP2;ratioP2;P2;SDS_P1;SDS_P2;PMS_P1;PMS_P2;Temp;Humidity;BMP_temperature;BMP_pressure;BME280_temperature;BME280_humidity;BME280_pressure;Samples;Min_cycle;Max_cycle;Signal;HPM_P1;HPM_P2
2022/10/22 00:01:40;;;;;;;834.30;747.10;;;12.40;99.90;;;;;;4996947;28;20454;-82
2022/10/22 00:04:07;;;;;;;823.97;736.50;;;12.50;99.90;;;;;;4996951;28;20454;-83
2022/10/22 00:06:35;;;;;;;815.63;728.87;;;12.40;99.90;;;;;;4996307;28;21019;-82
2022/10/22 00:09:02;;;;;;;821.70;734.87;;;12.40;99.90;;;;;;4997267;28;20465;-82
2022/10/22 00:11:28;;;;;;;825.97;739.57;;;12.40;99.90;;;;;;4997003;28;20477;-82
2022/10/22 00:13:55;;;;;;;816.57;729.63;;;12.20;99.90;;;;;;4995957;28;20454;-81
2022/10/22 00:16:22;;;;;;;819.33;732.57;;;12.30;99.90;;;;;;4996185;28;20477;-82
2022/10/22 00:18:49;;;;;;;809.17;723.23;;;12.30;99.90;;;;;;4996531;28;20458;-82
2022/10/22 00:21:15;;;;;;;814.67;728.57;;;12.20;99.90;;;;;;4996674;28;20960;-82
2022/10/22 00:23:44;;;;;;;804.97;718.87;;;12.30;99.90;;;;;;4996285;28;20652;-82
2022/10/22 00:26:11;;;;;;;805.33;719.33;;;12.30;99.90;;;;;;4996213;28;20470;-82
2022/10/22 00:28:38;;;;;;;827.50;741.33;;;12.30;99.90;;;;;;4997115;28;20461;-82
2022/10/22 00:31:05;;;;;;;838.00;751.90;;;12.30;99.90;;;;;;4996301;28;20454;-82
2022/10/22 00:33:32;;;;;;;840.33;754.30;;;12.50;99.90;;;;;;4996362;28;20461;-83
2022/10/22 00:36:05;;;;;;;840.80;754.97;;;12.40;99.90;;;;;;4996384;28;20705;-80
2022/10/22 00:38:33;;;;;;;845.40;759.20;;;12.50;99.90;;;;;;4996526;28;20476;-82
2022/10/22 00:41:01;;;;;;;855.57;769.07;;;12.50;99.90;;;;;;4996342;28;20462;-82
2022/10/22 00:43:27;;;;;;;862.70;776.63;;;12.50;99.90;;;;;;4995932;28;20754;-82
2022/10/22 00:45:54;;;;;;;869.87;782.73;;;12.40;99.90;;;;;;4995176;28;20482;-82
2022/10/22 00:48:25;;;;;;;850.47;763.47;;;12.40;99.90;;;;;;4996386;28;20458;-82
2022/10/22 00:50:56;;;;;;;854.77;767.90;;;12.50;99.90;;;;;;4996064;28;20462;-83
2022/10/22 00:53:26;;;;;;;839.63;753.27;;;12.50;99.90;;;;;;4996184;28;20503;-82
2022/10/22 00:55:54;;;;;;;826.90;741.40;;;12.50;99.90;;;;;;4995466;28;20486;-82
2022/10/22 00:58:25;;;;;;;824.00;738.10;;;12.50;99.90;;;;;;4980667;28;20454;-82
2022/10/22 01:00:52;;;;;;;836.37;749.40;;;12.60;99.90;;;;;;4996549;28;20462;-82
2022/10/22 01:03:19;;;;;;;860.97;774.03;;;12.60;99.90;;;;;;4995442;28;20461;-82
2022/10/22 01:05:54;;;;;;;839.30;753.70;;;12.60;99.90;;;;;;4995942;28;20481;-82
2022/10/22 01:08:26;;;;;;;816.40;730.53;;;12.70;99.90;;;;;;4995810;28;20461;-81
2022/10/22 01:11:05;;;;;;;818.73;732.77;;;12.70;99.90;;;;;;4995655;28;20461;-82
2022/10/22 01:13:45;;;;;;;864.57;778.73;;;12.60;99.90;;;;;;4976464;28;20463;-82
2022/10/22 01:16:17;;;;;;;855.60;769.70;;;12.60;99.90;;;;;;4981985;28;20485;-83
2022/10/22 01:18:52;;;;;;;850.47;764.30;;;12.60;99.90;;;;;;4995931;28;20458;-82
2022/10/22 01:21:27;;;;;;;849.17;763.03;;;12.70;99.90;;;;;;4996117;28;20847;-82
2022/10/22 01:24:23;;;;;;;862.97;776.23;;;12.60;99.90;;;;;;4995998;28;20465;-82
2022/10/22 01:27:10;;;;;;;865.63;779.07;;;12.70;99.90;;;;;;4995319;28;20477;-82
2022/10/22 01:29:42;;;;;;;870.23;782.80;;;12.60;99.90;;;;;;4995863;28;20454;-82
2022/10/22 01:32:15;;;;;;;840.27;753.50;;;12.70;99.90;;;;;;4996166;28;20450;-82
2022/10/22 01:34:44;;;;;;;843.13;756.33;;;12.70;99.90;;;;;;4995408;28;20457;-82
2022/10/22 01:37:12;;;;;;;864.10;777.10;;;12.70;99.90;;;;;;4995321;28;20486;-82
2022/10/22 01:39:42;;;;;;;858.40;771.00;;;12.70;99.90;;;;;;4995696;28;20453;-82
2022/10/22 01:42:08;;;;;;;843.40;756.30;;;12.70;99.90;;;;;;4976988;28;20861;-82
2022/10/22 01:44:38;;;;;;;852.87;765.37;;;12.70;99.90;;;;;;4975608;28;20466;-82
2022/10/22 01:47:15;;;;;;;852.07;764.60;;;12.80;99.90;;;;;;4995317;28;20475;-81
2022/10/22 01:50:01;;;;;;;857.57;770.07;;;12.80;99.90;;;;;;4995438;28;20982;-82
2022/10/22 01:52:44;;;;;;;863.00;774.37;;;13.00;99.90;;;;;;4976444;28;20459;-82
2022/10/22 01:55:20;;;;;;;868.37;780.77;;;13.00;99.90;;;;;;4978324;28;20466;-82
2022/10/22 01:57:59;;;;;;;869.50;781.90;;;13.10;99.90;;;;;;4996585;28;20863;-82
2022/10/22 02:00:28;;;;;;;867.00;779.70;;;13.10;99.90;;;;;;4998843;28;20453;-82
2022/10/22 02:03:00;;;;;;;868.80;781.50;;;13.10;99.90;;;;;;4998869;28;21030;-82
2022/10/22 02:05:33;;;;;;;857.83;771.23;;;13.00;99.90;;;;;;4998510;28;20468;-82
2022/10/22 02:08:03;;;;;;;822.17;736.17;;;13.00;99.90;;;;;;4979664;28;20455;-82
2022/10/22 02:10:30;;;;;;;829.33;743.10;;;12.90;99.90;;;;;;4980102;28;20549;-82
2022/10/22 02:12:58;;;;;;;851.97;765.30;;;12.80;99.90;;;;;;4980167;28;20513;-82
2022/10/22 02:15:29;;;;;;;832.40;745.77;;;12.80;99.90;;;;;;4979618;28;20454;-82
2022/10/22 02:17:58;;;;;;;855.13;768.23;;;12.90;99.90;;;;;;4999548;28;20897;-82
2022/10/22 02:20:28;;;;;;;827.50;742.70;;;12.90;99.90;;;;;;4999558;28;20461;-82
2022/10/22 02:22:56;;;;;;;825.03;740.07;;;12.80;99.90;;;;;;4998711;28;20446;-82
2022/10/22 02:25:27;;;;;;;846.63;760.40;;;12.80;99.90;;;;;;4999734;28;20458;-82
2022/10/22 02:28:02;;;;;;;838.20;754.27;;;12.80;99.90;;;;;;4999552;28;20455;-82
2022/10/22 02:30:31;;;;;;;840.70;756.20;;;12.60;99.90;;;;;;4999624;28;20469;-82
2022/10/22 02:33:02;;;;;;;838.10;753.53;;;12.70;99.90;;;;;;5007103;28;20449;-82
2022/10/22 02:35:30;;;;;;;831.47;745.77;;;12.60;99.90;;;;;;5010859;28;20454;-81
2022/10/22 02:37:58;;;;;;;859.23;772.07;;;12.50;99.90;;;;;;5013166;28;20474;-81
2022/10/22 02:40:25;;;;;;;850.40;763.60;;;12.50;99.90;;;;;;5012454;28;20454;-80
2022/10/22 02:42:53;;;;;;;860.40;773.80;;;12.40;99.90;;;;;;5007357;28;20458;-82
2022/10/22 02:45:20;;;;;;;865.40;778.10;;;12.40;99.90;;;;;;4998511;28;20453;-82
2022/10/22 02:47:49;;;;;;;850.73;764.37;;;12.40;99.90;;;;;;4997768;28;20470;-81
2022/10/22 02:50:16;;;;;;;881.53;794.13;;;12.30;99.90;;;;;;4997957;28;20450;-82
2022/10/22 02:52:43;;;;;;;864.50;777.80;;;12.20;99.90;;;;;;4998373;28;20454;-81
2022/10/22 02:55:09;;;;;;;877.13;790.10;;;12.10;99.90;;;;;;4997728;28;20446;-82
2022/10/22 02:57:36;;;;;;;868.10;781.00;;;12.00;99.90;;;;;;4998360;28;20490;-82
2022/10/22 03:00:04;;;;;;;863.47;776.67;;;11.80;99.90;;;;;;4996552;28;20454;-81
2022/10/22 03:02:31;;;;;;;861.43;774.53;;;11.70;99.90;;;;;;4997794;28;20450;-81
2022/10/22 03:04:59;;;;;;;860.97;773.47;;;11.80;99.90;;;;;;4997794;28;20458;-82
2022/10/22 03:07:26;;;;;;;866.33;779.67;;;11.80;99.90;;;;;;4998309;28;20493;-81
2022/10/22 03:09:53;;;;;;;846.17;759.63;;;11.80;99.90;;;;;;4996479;28;20951;-82
2022/10/22 03:12:19;;;;;;;841.73;754.97;;;11.80;99.90;;;;;;4997371;28;20458;-82
2022/10/22 03:14:46;;;;;;;859.07;771.00;;;11.70;99.90;;;;;;4997237;28;20832;-82
2022/10/22 03:17:13;;;;;;;868.77;781.40;;;11.80;99.90;;;;;;4997584;28;20987;-82
2022/10/22 03:19:40;;;;;;;858.07;771.20;;;11.70;99.90;;;;;;4997178;28;20461;-83
2022/10/22 03:22:13;;;;;;;866.20;779.50;;;11.60;99.90;;;;;;4997837;28;20549;-82
2022/10/22 03:24:44;;;;;;;870.30;783.30;;;11.60;99.90;;;;;;4997476;28;20457;-82
2022/10/22 03:27:12;;;;;;;879.57;790.77;;;11.30;99.90;;;;;;4997666;28;20474;-82
2022/10/22 03:29:40;;;;;;;864.57;776.60;;;11.30;99.90;;;;;;4996986;28;20454;-81
2022/10/22 03:32:07;;;;;;;866.37;777.97;;;11.20;99.90;;;;;;4997844;28;20469;-81
2022/10/22 03:34:34;;;;;;;912.00;818.27;;;11.20;99.90;;;;;;4996621;28;20454;-82
2022/10/22 03:37:02;;;;;;;914.00;821.00;;;11.20;99.90;;;;;;4997032;28;20486;-81
2022/10/22 03:39:32;;;;;;;910.40;818.03;;;11.30;99.90;;;;;;4997101;28;20451;-82
2022/10/22 03:41:58;;;;;;;913.90;820.23;;;11.40;99.90;;;;;;4997088;28;20450;-81
2022/10/22 03:44:26;;;;;;;907.60;814.90;;;11.50;99.90;;;;;;4996164;28;20537;-82
2022/10/22 03:46:53;;;;;;;911.27;818.93;;;11.40;99.90;;;;;;4996539;28;20482;-81
2022/10/22 03:49:20;;;;;;;905.47;814.67;;;11.50;99.90;;;;;;4997681;28;20461;-82
2022/10/22 03:51:46;;;;;;;918.30;826.47;;;11.50;99.90;;;;;;4997337;28;20454;-82
2022/10/22 03:54:14;;;;;;;922.83;830.53;;;11.40;99.90;;;;;;4996490;28;20462;-81
2022/10/22 03:56:43;;;;;;;920.57;828.57;;;11.40;99.90;;;;;;4996576;28;20482;-81
2022/10/22 03:59:09;;;;;;;916.90;824.20;;;11.30;99.90;;;;;;4996200;28;20454;-81
2022/10/22 04:01:36;;;;;;;922.13;828.30;;;11.30;99.90;;;;;;4996422;28;20517;-81
2022/10/22 04:04:03;;;;;;;918.07;825.27;;;11.40;99.90;;;;;;4996374;28;20454;-81
2022/10/22 04:06:30;;;;;;;905.70;812.23;;;11.30;99.90;;;;;;4996673;28;20477;-82
2022/10/22 04:08:57;;;;;;;905.87;813.17;;;11.40;99.90;;;;;;4996361;28;20454;-80
2022/10/22 04:11:24;;;;;;;897.03;804.90;;;11.40;99.90;;;;;;4996277;28;20462;-82
2022/10/22 04:13:52;;;;;;;886.47;795.60;;;11.60;99.90;;;;;;4996470;28;20454;-82
2022/10/22 04:16:20;;;;;;;886.63;795.27;;;11.80;99.90;;;;;;4996493;28;20474;-82
2022/10/22 04:18:49;;;;;;;892.20;800.47;;;11.50;99.90;;;;;;4995951;28;20474;-82
2022/10/22 04:21:18;;;;;;;896.57;804.67;;;11.40;99.90;;;;;;4996288;28;20460;-82
2022/10/22 04:23:45;;;;;;;906.10;815.00;;;11.20;99.90;;;;;;4995419;28;20454;-82
2022/10/22 04:26:12;;;;;;;915.53;823.50;;;11.10;99.90;;;;;;4996033;28;20477;-82
2022/10/22 04:28:39;;;;;;;902.10;811.00;;;11.00;99.90;;;;;;4996391;28;20457;-81
2022/10/22 04:31:12;;;;;;;915.97;824.77;;;10.90;99.90;;;;;;4996195;28;20462;-82
2022/10/22 04:33:40;;;;;;;918.77;827.13;;;10.80;99.90;;;;;;4995948;28;20460;-82
2022/10/22 04:36:08;;;;;;;922.17;828.33;;;10.70;99.90;;;;;;4996591;28;20489;-82
2022/10/22 04:38:35;;;;;;;903.07;810.33;;;10.60;99.90;;;;;;4996454;28;20478;-82
2022/10/22 04:41:13;;;;;;;898.13;807.00;;;10.80;99.90;;;;;;4995815;28;20458;-81
2022/10/22 04:43:40;;;;;;;905.17;814.23;;;10.90;99.90;;;;;;4996518;28;20458;-82
2022/10/22 04:46:08;;;;;;;897.20;806.80;;;11.00;99.90;;;;;;4995914;28;21003;-82
2022/10/22 04:48:36;;;;;;;898.97;808.80;;;11.10;99.90;;;;;;4997124;28;20458;-82
2022/10/22 04:51:04;;;;;;;898.23;808.23;;;10.90;99.90;;;;;;4989076;28;20457;-82
2022/10/22 04:53:30;;;;;;;910.87;820.20;;;10.90;99.90;;;;;;4995309;28;20477;-83
2022/10/22 04:56:07;;;;;;;897.37;807.13;;;10.80;99.90;;;;;;4995668;28;20477;-82
2022/10/22 04:58:34;;;;;;;902.90;812.57;;;11.00;99.90;;;;;;4982318;28;20510;-82
2022/10/22 05:01:01;;;;;;;897.40;805.73;;;11.20;99.90;;;;;;4996113;28;20743;-83
2022/10/22 05:03:28;;;;;;;897.30;807.30;;;11.30;99.90;;;;;;4995545;28;20857;-83
2022/10/22 05:06:00;;;;;;;881.57;792.70;;;11.40;99.90;;;;;;4996134;28;20493;-82
2022/10/22 05:08:26;;;;;;;890.93;801.60;;;11.60;99.90;;;;;;4996103;28;20450;-83
2022/10/22 05:10:53;;;;;;;887.33;797.70;;;11.70;99.90;;;;;;4996166;28;20466;-84
2022/10/22 05:13:20;;;;;;;868.70;778.87;;;11.70;99.90;;;;;;4996542;28;20464;-83
2022/10/22 05:15:46;;;;;;;891.60;800.80;;;11.70;99.90;;;;;;4996263;28;20481;-83
2022/10/22 05:18:13;;;;;;;886.67;796.93;;;11.90;99.90;;;;;;4995741;28;20484;-83
2022/10/22 05:20:40;;;;;;;879.50;790.77;;;11.90;99.90;;;;;;5000567;28;20445;-82
2022/10/22 05:23:08;;;;;;;867.37;778.13;;;11.90;99.90;;;;;;5002815;28;20458;-82
2022/10/22 05:25:37;;;;;;;876.07;787.20;;;11.80;99.90;;;;;;4995813;28;20458;-82
2022/10/22 05:28:04;;;;;;;878.17;789.27;;;11.70;99.90;;;;;;4995341;28;20457;-82
2022/10/22 05:30:31;;;;;;;887.17;798.17;;;11.70;99.90;;;;;;4995690;28;20454;-82
2022/10/22 05:32:57;;;;;;;871.50;782.23;;;11.70;99.90;;;;;;4996907;28;20461;-82
2022/10/22 05:35:24;;;;;;;878.33;789.20;;;11.60;99.90;;;;;;5000493;28;20954;-82
2022/10/22 05:37:51;;;;;;;878.83;789.13;;;11.60;99.90;;;;;;4999576;28;20478;-83
2022/10/22 05:40:19;;;;;;;888.63;798.33;;;11.60;99.90;;;;;;4999408;28;20970;-83
2022/10/22 05:42:45;;;;;;;882.63;793.20;;;11.60;99.90;;;;;;4999341;28;20853;-83
2022/10/22 05:45:12;;;;;;;892.30;802.07;;;11.60;99.90;;;;;;4999174;28;20450;-83
2022/10/22 05:47:39;;;;;;;871.73;782.47;;;11.70;99.90;;;;;;4999172;28;20462;-83
2022/10/22 05:50:06;;;;;;;884.53;794.63;;;11.70;99.90;;;;;;4999475;28;20944;-82
2022/10/22 05:52:33;;;;;;;873.70;785.00;;;11.70;99.90;;;;;;4998624;28;20461;-82
2022/10/22 05:55:00;;;;;;;865.43;776.27;;;11.90;99.90;;;;;;4998682;28;20545;-82
2022/10/22 05:57:28;;;;;;;851.07;762.53;;;12.00;99.90;;;;;;4999450;28;20485;-82
2022/10/22 05:59:55;;;;;;;853.40;764.03;;;12.20;99.90;;;;;;4999041;28;20461;-82
2022/10/22 06:02:21;;;;;;;846.13;757.00;;;12.30;99.90;;;;;;4999969;28;20461;-83
2022/10/22 06:04:48;;;;;;;840.70;751.60;;;12.40;99.90;;;;;;4999243;28;20454;-82
2022/10/22 06:07:16;;;;;;;838.50;749.03;;;12.40;99.90;;;;;;4998964;28;20470;-81
2022/10/22 06:09:43;;;;;;;852.77;763.03;;;12.30;99.90;;;;;;4998987;28;21027;-81
2022/10/22 06:12:12;;;;;;;843.67;754.17;;;12.20;99.90;;;;;;5000017;28;20454;-82
2022/10/22 06:14:40;;;;;;;841.97;752.60;;;12.10;99.90;;;;;;4998635;28;20566;-81
2022/10/22 06:17:07;;;;;;;840.73;754.10;;;12.00;99.90;;;;;;4998897;28;20469;-82
2022/10/22 06:19:33;;;;;;;838.53;751.03;;;12.00;99.90;;;;;;4998781;28;20458;-81
2022/10/22 06:22:00;;;;;;;852.70;762.90;;;11.90;99.90;;;;;;4998364;28;20458;-83
2022/10/22 06:24:27;;;;;;;834.97;744.17;;;11.80;99.90;;;;;;4999222;28;20450;-81
2022/10/22 06:26:53;;;;;;;837.10;747.20;;;11.80;99.90;;;;;;4999911;28;20844;-81
2022/10/22 06:29:21;;;;;;;821.73;732.23;;;11.70;99.90;;;;;;4999092;28;20457;-82
2022/10/22 06:31:49;;;;;;;839.53;749.00;;;11.60;99.90;;;;;;4999059;28;20859;-82
2022/10/22 06:34:17;;;;;;;831.73;741.80;;;11.60;99.90;;;;;;4998950;28;20450;-82
2022/10/22 06:36:44;;;;;;;821.80;733.00;;;11.60;99.90;;;;;;5000028;28;20532;-82
2022/10/22 06:39:12;;;;;;;809.43;721.17;;;11.70;99.90;;;;;;4999196;28;20474;-82
2022/10/22 06:41:39;;;;;;;834.43;745.13;;;11.80;99.90;;;;;;4999341;28;20458;-82
2022/10/22 06:44:06;;;;;;;828.60;739.53;;;11.90;99.90;;;;;;4998559;28;20457;-81
2022/10/22 06:46:33;;;;;;;824.40;735.50;;;12.00;99.90;;;;;;4998309;28;20701;-81
2022/10/22 06:49:04;;;;;;;832.00;742.87;;;12.20;99.90;;;;;;4999226;28;20446;-81
2022/10/22 06:51:31;;;;;;;815.73;727.13;;;12.30;99.90;;;;;;5000150;28;20458;-82
2022/10/22 06:53:59;;;;;;;824.67;735.80;;;12.30;99.90;;;;;;4998542;28;20458;-82
2022/10/22 06:56:28;;;;;;;830.10;742.27;;;12.40;99.90;;;;;;4999701;28;20477;-82
2022/10/22 06:58:56;;;;;;;827.73;739.30;;;12.50;99.90;;;;;;4998178;28;20903;-82
2022/10/22 07:01:25;;;;;;;841.00;752.80;;;12.70;99.90;;;;;;4998825;28;20458;-81
2022/10/22 07:03:53;;;;;;;834.90;746.07;;;12.80;99.90;;;;;;4999105;28;20454;-82
2022/10/22 07:06:22;;;;;;;839.37;749.20;;;12.80;99.90;;;;;;4998616;28;20485;-82
2022/10/22 07:08:49;;;;;;;837.00;747.60;;;13.00;99.90;;;;;;4998688;28;20450;-82
2022/10/22 07:11:17;;;;;;;850.53;760.43;;;13.10;99.90;;;;;;4998795;28;20462;-82
2022/10/22 07:13:44;;;;;;;847.67;757.50;;;13.20;99.90;;;;;;4999449;28;20836;-82
2022/10/22 07:16:11;;;;;;;842.63;754.07;;;13.30;99.90;;;;;;4998803;28;20486;-82
2022/10/22 07:18:39;;;;;;;851.30;761.20;;;13.50;99.90;;;;;;4998746;28;20474;-82
2022/10/22 07:21:16;;;;;;;857.77;768.90;;;13.60;99.90;;;;;;4997533;28;20964;-81
2022/10/22 07:23:50;;;;;;;849.10;761.40;;;13.80;99.90;;;;;;4998153;28;20465;-82
2022/10/22 07:26:20;;;;;;;862.70;774.30;;;13.80;99.90;;;;;;4998842;28;21078;-82
2022/10/22 07:28:50;;;;;;;859.27;772.57;;;14.00;99.90;;;;;;4998812;28;20446;-82
2022/10/22 07:31:19;;;;;;;864.53;782.00;;;14.10;99.90;;;;;;4998918;28;20462;-82
2022/10/22 07:33:46;;;;;;;864.47;786.00;;;14.20;99.90;;;;;;4998253;28;20457;-82
2022/10/22 07:36:20;;;;;;;861.83;786.07;;;14.20;99.90;;;;;;4998772;28;20482;-82
2022/10/22 07:38:48;;;;;;;867.60;791.40;;;14.20;99.90;;;;;;4998656;28;20474;-82
2022/10/22 07:41:17;;;;;;;858.20;783.30;;;14.30;99.90;;;;;;4999458;28;20462;-82
2022/10/22 07:43:44;;;;;;;862.70;789.00;;;14.30;99.90;;;;;;4998473;28;20457;-82
2022/10/22 07:46:11;;;;;;;870.97;798.17;;;14.50;99.90;;;;;;4998273;28;20470;-82
2022/10/22 07:48:38;;;;;;;815.07;748.47;;;14.50;99.90;;;;;;4999559;28;20446;-82
2022/10/22 07:51:05;;;;;;;810.43;746.93;;;14.70;99.90;;;;;;4998791;28;20454;-82
2022/10/22 07:53:32;;;;;;;812.30;752.60;;;14.70;99.90;;;;;;4998240;28;20481;-82
2022/10/22 07:56:14;;;;;;;806.67;748.70;;;14.70;99.90;;;;;;4997615;28;20489;-82
2022/10/22 07:58:42;;;;;;;737.27;692.03;;;14.80;99.90;;;;;;4995660;28;20557;-82
2022/10/22 08:01:08;;;;;;;667.40;630.57;;;14.80;99.90;;;;;;4998308;28;20882;-82
2022/10/22 08:03:44;;;;;;;573.70;544.77;;;14.90;99.90;;;;;;4997933;28;20462;-82
2022/10/22 08:06:14;;;;;;;542.80;516.23;;;14.90;99.90;;;;;;4997704;28;20477;-82
2022/10/22 08:08:44;;;;;;;412.63;395.00;;;15.00;99.90;;;;;;4997743;28;20500;-82
2022/10/22 08:11:17;;;;;;;346.20;330.37;;;15.00;99.90;;;;;;4998058;28;20458;-82
2022/10/22 08:13:45;;;;;;;157.63;151.93;;;15.10;99.90;;;;;;4997159;28;20462;-82
2022/10/22 08:16:15;;;;;;;109.20;105.30;;;15.10;99.90;;;;;;4997816;28;20475;-82
2022/10/22 08:18:42;;;;;;;52.20;49.90;;;15.20;99.90;;;;;;4997910;28;20466;-82
2022/10/22 08:21:09;;;;;;;30.03;28.13;;;15.20;99.90;;;;;;4997168;28;20830;-82
2022/10/22 08:23:37;;;;;;;34.27;32.13;;;15.20;99.90;;;;;;4997745;28;20449;-82
2022/10/22 08:26:07;;;;;;;16.57;15.37;;;15.30;99.90;;;;;;4997356;28;20505;-82
2022/10/22 08:28:41;;;;;;;12.57;5.50;;;15.40;99.90;;;;;;4996820;28;20945;-82
2022/10/22 08:31:10;;;;;;;14.37;13.10;;;15.50;99.90;;;;;;4997830;28;20924;-83
2022/10/22 08:33:37;;;;;;;16.87;15.77;;;15.50;99.90;;;;;;5001116;28;20447;-82
2022/10/22 08:36:05;;;;;;;22.37;20.67;;;15.50;99.90;;;;;;5000576;28;20984;-83
2022/10/22 08:38:31;;;;;;;18.20;16.90;;;15.60;99.90;;;;;;4982094;28;20479;-83
2022/10/22 08:41:07;;;;;;;17.03;15.37;;;15.60;99.90;;;;;;4998816;28;20458;-83
2022/10/22 08:44:14;;;;;;;14.00;11.50;;;15.70;99.90;;;;;;4998280;28;20478;-83
2022/10/22 08:47:02;;;;;;;24.90;23.07;;;15.80;99.90;;;;;;4999546;28;20484;-83
2022/10/22 08:49:36;;;;;;;14.90;13.80;;;15.90;99.90;;;;;;4998595;28;20455;-83
2022/10/22 08:52:03;;;;;;;13.13;12.03;;;16.00;99.90;;;;;;4999000;28;20460;-82
2022/10/22 08:54:38;;;;;;;8.33;5.40;;;16.00;99.90;;;;;;4998589;28;20455;-83
2022/10/22 08:57:38;;;;;;;13.20;5.30;;;16.10;99.90;;;;;;4999405;28;20481;-83
2022/10/22 09:00:07;;;;;;;11.97;4.73;;;16.00;99.90;;;;;;5001226;28;20928;-83
2022/10/22 09:02:43;;;;;;;9.23;3.27;;;16.10;99.90;;;;;;4999662;28;20459;-83
2022/10/22 09:05:42;;;;;;;9.63;2.90;;;16.30;99.90;;;;;;5001101;28;20464;-83
2022/10/22 09:08:16;;;;;;;15.37;3.10;;;16.40;99.90;;;;;;5003816;28;20461;-84
2022/10/22 09:10:49;;;;;;;6.00;1.90;;;16.60;99.90;;;;;;5006128;28;20455;-83
2022/10/22 09:13:19;;;;;;;8.40;2.20;;;16.70;99.90;;;;;;5006847;28;20461;-83
2022/10/22 09:15:49;;;;;;;5.10;2.27;;;16.80;99.90;;;;;;5010132;28;20857;-83
2022/10/22 09:18:35;;;;;;;5.40;2.00;;;16.90;99.90;;;;;;5019452;28;20488;-83
2022/10/22 09:21:15;;;;;;;5.43;2.00;;;17.00;99.90;;;;;;5018740;28;20458;-83
2022/10/22 09:23:56;;;;;;;10.50;2.27;;;17.10;99.90;;;;;;5018477;28;20468;-83
2022/10/22 09:26:29;;;;;;;5.50;1.70;;;17.20;99.90;;;;;;5014272;28;20842;-82
2022/10/22 09:29:00;;;;;;;6.30;1.80;;;17.30;99.90;;;;;;5005148;28;20490;-83
2022/10/22 09:31:33;;;;;;;9.27;1.53;;;17.50;99.90;;;;;;5001645;28;20450;-83
2022/10/22 09:34:06;;;;;;;7.30;1.77;;;17.60;99.90;;;;;;5002013;28;20460;-83
2022/10/22 09:36:34;;;;;;;8.57;2.00;;;17.70;99.90;;;;;;5001474;28;20483;-84
2022/10/22 09:39:01;;;;;;;8.27;2.17;;;17.80;99.90;;;;;;5000259;28;20470;-84
2022/10/22 09:41:29;;;;;;;7.80;1.87;;;18.00;99.90;;;;;;5001976;28;20456;-84
2022/10/22 09:43:56;;;;;;;7.50;1.90;;;18.10;99.90;;;;;;5000643;28;20514;-84
2022/10/22 09:46:26;;;;;;;7.63;1.90;;;18.00;99.90;;;;;;5000645;28;20478;-84
2022/10/22 09:49:03;;;;;;;5.03;1.87;;;17.90;99.90;;;;;;4999370;28;20463;-84
2022/10/22 09:51:41;;;;;;;9.20;2.30;;;18.00;99.90;;;;;;5000836;28;20483;-85
2022/10/22 09:54:16;;;;;;;6.40;1.80;;;18.00;99.90;;;;;;5001411;28;20453;-84
2022/10/22 09:56:47;;;;;;;7.80;1.73;;;18.10;99.90;;;;;;5003316;28;20475;-86
2022/10/22 09:59:15;;;;;;;7.63;2.07;;;18.30;99.90;;;;;;5007445;28;20980;-86
2022/10/22 10:01:43;;;;;;;6.57;1.97;;;18.50;99.90;;;;;;5002639;28;20457;-85
2022/10/22 10:04:13;;;;;;;6.57;1.80;;;18.30;99.50;;;;;;5002308;28;20457;-86
2022/10/22 10:06:41;;;;;;;13.03;2.33;;;18.20;99.80;;;;;;5002114;28;20475;-85
2022/10/22 10:09:16;;;;;;;9.60;1.97;;;18.10;99.40;;;;;;5002770;28;20456;-85
2022/10/22 10:11:48;;;;;;;7.90;2.87;;;18.20;98.10;;;;;;5009430;28;20473;-85
2022/10/22 10:14:20;;;;;;;10.23;2.10;;;18.00;98.30;;;;;;5008136;28;20463;-86
2022/10/22 10:16:57;;;;;;;11.83;2.03;;;18.00;97.60;;;;;;5004045;28;20482;-87
2022/10/22 10:19:43;;;;;;;7.97;2.30;;;18.10;99.30;;;;;;5004828;28;20463;-86
2022/10/22 10:22:24;;;;;;;9.93;2.00;;;18.10;98.90;;;;;;4985535;28;20459;-86
2022/10/22 10:25:06;;;;;;;10.63;2.27;;;18.20;99.10;;;;;;5001660;28;20451;-88
2022/10/22 10:27:37;;;;;;;7.70;1.67;;;18.10;98.10;;;;;;5005109;28;20506;-85
2022/10/22 10:30:11;;;;;;;10.37;2.23;;;18.00;97.60;;;;;;5006983;28;20449;-86
2022/10/22 10:33:02;;;;;;;5.07;1.90;;;18.00;97.60;;;;;;5006351;28;20456;-86
2022/10/22 10:35:43;;;;;;;7.77;2.30;;;17.90;97.50;;;;;;5005235;28;20450;-88
2022/10/22 10:38:30;;;;;;;6.67;1.90;;;17.90;97.60;;;;;;5005250;28;20444;-85
2022/10/22 10:41:04;;;;;;;5.70;1.40;;;17.80;97.20;;;;;;5009632;28;20524;-85
2022/10/22 10:43:38;;;;;;;7.20;1.63;;;17.60;96.50;;;;;;5010366;28;20448;-84
2022/10/22 10:46:16;;;;;;;11.37;1.93;;;17.50;97.40;;;;;;5011381;28;20478;-84
2022/10/22 10:48:50;;;;;;;4.07;1.20;;;17.50;97.40;;;;;;5009584;28;20463;-85
2022/10/22 10:51:37;;;;;;;6.43;1.43;;;17.40;97.40;;;;;;5009408;28;20451;-86
2022/10/22 10:54:16;;;;;;;6.17;1.50;;;17.30;96.30;;;;;;5007604;28;20696;-82
2022/10/22 10:56:48;;;;;;;7.60;1.70;;;17.40;97.40;;;;;;5003515;28;20492;-82
2022/10/22 10:59:26;;;;;;;8.40;2.63;;;17.40;97.00;;;;;;5006788;28;20470;-84
2022/10/22 11:02:13;;;;;;;7.17;1.27;;;17.40;97.40;;;;;;4989200;28;20871;-84
2022/10/22 11:05:03;;;;;;;9.70;1.73;;;17.30;97.30;;;;;;4988814;28;20467;-84
2022/10/22 11:07:36;;;;;;;4.87;1.50;;;17.20;97.60;;;;;;4990469;28;20473;-86
2022/10/22 11:10:09;;;;;;;4.53;1.10;;;17.20;96.50;;;;;;5009366;28;20461;-83
2022/10/22 11:12:42;;;;;;;6.50;1.27;;;17.10;97.30;;;;;;5010625;28;20458;-84
2022/10/22 11:15:17;;;;;;;9.53;1.80;;;17.20;96.70;;;;;;5011135;28;20450;-83
2022/10/22 11:17:48;;;;;;;5.83;1.30;;;17.20;96.50;;;;;;5011837;28;20480;-83
2022/10/22 11:20:19;;;;;;;5.70;1.47;;;17.10;96.30;;;;;;5011410;28;20485;-83
2022/10/22 11:22:52;;;;;;;6.20;1.43;;;17.20;96.90;;;;;;5010462;28;21016;-83
2022/10/22 11:25:22;;;;;;;5.13;1.27;;;17.30;97.30;;;;;;5010160;28;20454;-83
2022/10/22 11:27:53;;;;;;;7.30;1.47;;;17.40;97.20;;;;;;5010636;28;20510;-83
2022/10/22 11:30:22;;;;;;;8.37;1.47;;;17.30;96.10;;;;;;5010046;28;20839;-83
2022/10/22 11:32:53;;;;;;;4.47;1.50;;;17.40;96.70;;;;;;5011040;28;20453;-84
2022/10/22 11:35:24;;;;;;;6.43;1.23;;;17.50;96.60;;;;;;5010703;28;20461;-84
2022/10/22 11:37:54;;;;;;;8.30;1.37;;;17.60;95.60;;;;;;5011440;28;20470;-84
2022/10/22 11:40:29;;;;;;;4.40;1.10;;;17.50;95.10;;;;;;5009130;28;20482;-84
2022/10/22 11:42:58;;;;;;;4.90;1.13;;;17.60;96.10;;;;;;5009954;28;20455;-84
2022/10/22 11:45:31;;;;;;;5.57;1.37;;;17.80;96.00;;;;;;5009040;28;20460;-84
2022/10/22 11:48:06;;;;;;;5.70;1.50;;;17.90;95.50;;;;;;5009495;28;20450;-83
2022/10/22 11:50:49;;;;;;;5.27;1.10;;;17.90;95.30;;;;;;5009395;28;20459;-84
2022/10/22 11:53:30;;;;;;;7.93;2.03;;;18.00;94.30;;;;;;5006945;28;21012;-84
2022/10/22 11:55:58;;;;;;;5.90;1.17;;;18.00;94.00;;;;;;5008802;28;20475;-84
2022/10/22 11:58:42;;;;;;;7.13;1.67;;;18.00;94.30;;;;;;5009203;28;20453;-84
2022/10/22 12:01:42;;;;;;;5.80;1.27;;;18.10;94.30;;;;;;5008862;28;20505;-84
2022/10/22 12:04:20;;;;;;;5.30;1.10;;;18.30;94.30;;;;;;4998695;28;20452;-84
2022/10/22 12:06:59;;;;;;;4.87;1.23;;;18.50;93.80;;;;;;5012179;28;20475;-84
2022/10/22 12:09:31;;;;;;;7.30;1.20;;;18.60;93.40;;;;;;5007549;28;20444;-84
2022/10/22 12:12:04;;;;;;;5.77;1.47;;;18.80;92.70;;;;;;4989479;28;20441;-83
2022/10/22 12:14:35;;;;;;;8.27;1.33;;;19.00;92.00;;;;;;4997310;28;20454;-84
2022/10/22 12:17:08;;;;;;;5.27;1.70;;;19.10;91.30;;;;;;5010129;28;20504;-84
2022/10/22 12:19:37;;;;;;;5.47;1.10;;;19.20;90.30;;;;;;5009596;28;20495;-84
2022/10/22 12:22:13;;;;;;;14.10;1.97;;;19.40;91.40;;;;;;4963534;28;20473;-84
2022/10/22 12:24:45;;;;;;;8.03;1.43;;;19.40;90.60;;;;;;4950822;29;20460;-84
2022/10/22 12:27:18;;;;;;;10.33;1.50;;;19.30;90.10;;;;;;4950677;29;20506;-84
2022/10/22 12:29:45;;;;;;;5.73;1.23;;;19.10;91.30;;;;;;4951253;29;20475;-84
2022/10/22 12:32:14;;;;;;;8.33;1.70;;;18.90;91.20;;;;;;4950671;29;20459;-84
2022/10/22 12:34:46;;;;;;;6.20;1.23;;;18.90;91.20;;;;;;4951033;29;20448;-83
2022/10/22 12:37:14;;;;;;;6.73;1.63;;;19.00;90.90;;;;;;4951504;29;20514;-84